Weather at Stemmons Place Heliport [CLOSED]

Public forecast

Using degrees Fahrenheit for public forecast. Weather courtesy of forecast.io.

Closest aviation weather report (METAR) to Stemmons Place Heliport

Closest report is Dallas Love Field, 2.3 nm (4.2 km) N.

2024/05/19 20:53 (retrieved 33 minutes ago)

KDAL 192053Z 18012G20KT 10SM FEW050 32/20 A2987 RMK AO2 SLP109 T03220200 56021

Closest aviation forecast (TAF) to Stemmons Place Heliport

Closest forecast is Dallas Love Field, 2.3 nm (4.2 km) N.

2024/05/19 21:00 Ammendment (retrieved 26 minutes ago)

TAF AMD KDAL 192057Z 1921/2018 17015KT P6SM FEW050 FM201600 18015G25KT P6SM FEW250